Nearby METAR Reports

 

KDPA - Chicago/Dupage, Illinois, USA
Distance from station: ESE 9mi, 15km
Updated: 05/31/2020 6:52am
Clear
Clear
 Wind from ENE
Wind: ENE 8 mph , 13 km/h
Temperature: 52°F , 11°C
Dew Point: 39°F , 4°C
Humidity: 62%
Barometer: 30.35 inHg , 1027.8 hPa
Clouds: Clear
Visibility: 10 miles , 16 km
2020/05/31 11:52 KDPA 311152Z 06007KT 10SM CLR 11/04 A3035 RMK AO2 SLP278 T01060044 10106 20078 51017
KARR - Chicago/Aurora, Illinois, USA
Distance from station: SSW 14mi, 22km
Updated: 05/31/2020 6:52am
Clear
Clear
 Wind from ENE
Wind: ENE 10 mph , 17 km/h
Temperature: 52°F , 11°C
Dew Point: 43°F , 6°C
Humidity: 72%
Barometer: 30.35 inHg , 1027.8 hPa
Clouds: Clear
Visibility: 10 miles , 16 km
2020/05/31 11:52 KARR 311152Z AUTO 07009KT 10SM CLR 11/06 A3035 RMK AO2 SLP277 T01060061 10111 20089 53018
 
KDKB - De Kalb, Illinois, USA
Distance from station: W 14mi, 23km
Updated: 05/31/2020 6:55am
Clear
Clear
 Wind from E
Wind: E 12 mph , 19 km/h
Temperature: 50°F , 10°C
Wind Chill: 45°F , 7°C
Dew Point: 39°F , 4°C
Humidity: 67%
Barometer: 30.36 inHg , 1028.1 hPa
Clouds: Clear
Visibility: 10 miles , 16 km
2020/05/31 11:55 KDKB 311155Z AUTO 08010KT 10SM CLR 10/04 A3036 RMK AO2 T01000043 10100 20082
KORD - Chicago O'hare, Illinois, USA
Distance from station: E 25mi, 41km
Updated: 05/31/2020 6:51am
Few Clouds
Few Clouds
 Wind from E
Wind: E 8 mph , 13 km/h
Temperature: 54°F , 12°C
Dew Point: 37°F , 3°C
Humidity: 54%
Barometer: 30.36 inHg , 1028.1 hPa
Clouds: Few Clouds
Visibility: 10 miles , 16 km
Cloud details: Few Clouds 25000 ft
2020/05/31 11:51 KORD 311151Z 08007KT 10SM FEW250 12/03 A3036 RMK AO2 SLP282 T01170033 10122 20100 53020 $
 
KPWK - Palwaukee, Illinois, USA
Distance from station: ENE 29mi, 47km
Updated: 05/31/2020 6:52am
Clear
Clear
 Wind from E
Wind: E 6 mph , 9 km/h
Temperature: 54°F , 12°C
Dew Point: 39°F , 4°C
Humidity: 58%
Barometer: 30.38 inHg , 1028.8 hPa
Clouds: Clear
Visibility: 10 miles , 16 km
2020/05/31 11:52 KPWK 311152Z 08005KT 10SM CLR 12/04 A3038 RMK AO2 SLP288 T01170039 10117 20100 53018
KLOT - Romeoville/Chi, Illinois, USA
Distance from station: SE 30mi, 48km
Updated: 05/31/2020 6:55am
Clear
Clear
 Wind from ENE
Wind: ENE 10 mph , 17 km/h
Temperature: 52°F , 11°C
Dew Point: 43°F , 6°C
Humidity: 72%
Barometer: 30.35 inHg , 1027.8 hPa
Clouds: Clear
Visibility: 10 miles , 16 km
2020/05/31 11:55 KLOT 311155Z AUTO 07009KT 10SM CLR 11/06 A3035 RMK AO2 T01130062 10113 20090
 
KJOT - Joliet, Illinois, USA
Distance from station: SSE 33mi, 53km
Updated: 05/31/2020 6:55am
Clear
Clear
 Wind from ENE
Wind: ENE 13 mph , 20 km/h, Gust: 16 mph , 26 km/h
Temperature: 54°F , 12°C
Dew Point: 46°F , 8°C
Humidity: 77%
Barometer: 30.36 inHg , 1028.1 hPa
Clouds: Clear
Visibility: 10 miles , 16 km
2020/05/31 11:55 KJOT 311155Z AUTO 06011G14KT 10SM CLR 12/08 A3036 RMK AO2 T01230076 10126 20097
KRPJ - Rochelle/Koritz, Illinois, USA
Distance from station: W 34mi, 55km
Updated: 05/31/2020 6:55am
Clear
Clear
 Wind from E
Wind: E 14 mph , 22 km/h, Gust: 20 mph , 31 km/h
Temperature: 50°F , 10°C
Wind Chill: 45°F , 7°C
Dew Point: 41°F , 5°C
Humidity: 71%
Barometer: 30.36 inHg , 1028.1 hPa
Clouds: Clear
Visibility: 10 miles , 16 km
2020/05/31 11:55 KRPJ 311155Z AUTO 08012G17KT 10SM CLR 10/05 A3036 RMK AO2 T01020049 10112 20083
 
KC09 - Morris-Washburn, Illinois, USA
Distance from station: S 36mi, 59km
Updated: 05/31/2020 6:55am
Clear
Clear
 Wind from ENE
Wind: ENE 7 mph , 11 km/h
Temperature: 54°F , 12°C
Dew Point: 46°F , 8°C
Humidity: 77%
Barometer: 30.34 inHg , 1027.4 hPa
Clouds: Clear
Visibility: 10 miles , 16 km
2020/05/31 11:55 KC09 311155Z AUTO 07006KT 10SM CLR 12/08 A3034 RMK AO2 T01170080 10122 20095
KMDW - Chicago, Illinois, USA
Distance from station: ESE 37mi, 59km
Updated: 05/31/2020 6:53am
Few Clouds
Few Clouds
 Wind from ENE
Wind: ENE 12 mph , 19 km/h
Temperature: 54°F , 12°C
Dew Point: 39°F , 4°C
Humidity: 58%
Barometer: 30.36 inHg , 1028.1 hPa
Clouds: Few Clouds
Visibility: 10 miles , 16 km
Cloud details: Few Clouds 25000 ft
2020/05/31 11:53 KMDW 311153Z 07010KT 10SM FEW250 12/04 A3036 RMK AO2 SLP280 T01220044 10133 20111 53021 $
 
KRFD - Rockford, Illinois, USA
Distance from station: WNW 38mi, 62km
Updated: 05/31/2020 6:54am
Clear
Clear
 Wind from E
Wind: E 6 mph , 9 km/h
Temperature: 52°F , 11°C
Dew Point: 37°F , 3°C
Humidity: 58%
Barometer: 30.37 inHg , 1028.4 hPa
Clouds: Clear
Visibility: 10 miles , 16 km
2020/05/31 11:54 KRFD 311154Z 09005KT 10SM CLR 11/03 A3037 RMK AO2 SLP285 T01060033 10111 20083 53013 $
KUGN - Waukegan, Illinois, USA
Distance from station: NE 42mi, 68km
Updated: 05/31/2020 6:55am
Clear
Clear
 Wind from E
Wind: E 7 mph , 11 km/h
Temperature: 50°F , 10°C
Wind Chill: 47°F , 8°C
Dew Point: 37°F , 3°C
Humidity: 62%
Barometer: 30.37 inHg , 1028.4 hPa
Clouds: Clear
Visibility: 10 miles , 16 km
2020/05/31 11:55 KUGN 311155Z 09006KT 10SM CLR 10/03 A3037 RMK AO2 SLP283 T01000028 10106 20078 53016
 
KBUU - Burlington, Wisconsin, USA
Distance from station: N 50mi, 81km
Updated: 05/31/2020 6:55am
Clear
Clear
 Wind from calm
Wind: Calm
Temperature: 48°F , 9°C
Dew Point: 37°F , 3°C
Humidity: 66%
Barometer: 30.37 inHg , 1028.4 hPa
Clouds: Clear
Visibility: 10 miles , 16 km
2020/05/31 11:55 KBUU 311155Z AUTO 00000KT 10SM CLR 09/03 A3037 RMK AO2 T00890033 10089 20052